sensor_id;sensor_type;location;lat;lon;timestamp;pressure;altitude;pressure_sealevel;temperature;humidity
78590;BME280;67888;50.228;7.828;2023-11-21T00:04:06;98473.41;;;8.06;100.00
78590;BME280;67888;50.228;7.828;2023-11-21T00:09:07;98466.06;;;8.08;100.00
78590;BME280;67888;50.228;7.828;2023-11-21T00:14:08;98466.84;;;8.04;100.00
78590;BME280;67888;50.228;7.828;2023-11-21T00:19:09;98477.84;;;8.01;100.00
78590;BME280;67888;50.228;7.828;2023-11-21T00:24:10;98486.72;;;8.15;100.00
78590;BME280;67888;50.228;7.828;2023-11-21T00:29:14;98474.97;;;8.02;100.00
78590;BME280;67888;50.228;7.828;2023-11-21T00:34:14;98489.59;;;8.13;100.00
78590;BME280;67888;50.228;7.828;2023-11-21T00:39:15;98475.28;;;7.96;100.00
78590;BME280;67888;50.228;7.828;2023-11-21T00:44:15;98489.66;;;8.03;100.00
78590;BME280;67888;50.228;7.828;2023-11-21T00:49:16;98493.06;;;7.99;100.00
78590;BME280;67888;50.228;7.828;2023-11-21T00:54:16;98482.53;;;8.14;100.00
78590;BME280;67888;50.228;7.828;2023-11-21T00:59:17;98487.25;;;8.12;100.00
78590;BME280;67888;50.228;7.828;2023-11-21T01:04:17;98502.00;;;7.98;100.00
78590;BME280;67888;50.228;7.828;2023-11-21T01:09:18;98506.97;;;7.94;100.00
78590;BME280;67888;50.228;7.828;2023-11-21T01:14:19;98506.94;;;8.04;100.00
78590;BME280;67888;50.228;7.828;2023-11-21T01:19:19;98517.41;;;8.09;100.00
78590;BME280;67888;50.228;7.828;2023-11-21T01:24:20;98524.22;;;8.05;100.00
78590;BME280;67888;50.228;7.828;2023-11-21T01:29:20;98520.56;;;8.01;100.00
78590;BME280;67888;50.228;7.828;2023-11-21T01:34:21;98525.81;;;7.86;100.00
78590;BME280;67888;50.228;7.828;2023-11-21T01:39:21;98534.75;;;7.80;100.00
78590;BME280;67888;50.228;7.828;2023-11-21T01:44:24;98535.81;;;7.79;100.00
78590;BME280;67888;50.228;7.828;2023-11-21T01:49:25;98543.66;;;7.84;100.00
78590;BME280;67888;50.228;7.828;2023-11-21T01:54:25;98545.25;;;7.85;100.00
78590;BME280;67888;50.228;7.828;2023-11-21T01:59:28;98544.66;;;7.98;100.00
78590;BME280;67888;50.228;7.828;2023-11-21T02:04:35;98544.16;;;7.91;100.00
78590;BME280;67888;50.228;7.828;2023-11-21T02:09:36;98547.84;;;7.80;100.00
78590;BME280;67888;50.228;7.828;2023-11-21T02:14:42;98548.38;;;7.77;100.00
78590;BME280;67888;50.228;7.828;2023-11-21T02:19:43;98554.13;;;7.79;100.00
78590;BME280;67888;50.228;7.828;2023-11-21T02:24:45;98553.31;;;7.88;100.00
78590;BME280;67888;50.228;7.828;2023-11-21T02:29:47;98560.94;;;7.80;100.00
78590;BME280;67888;50.228;7.828;2023-11-21T02:34:48;98557.81;;;7.83;100.00
78590;BME280;67888;50.228;7.828;2023-11-21T02:39:48;98568.78;;;7.90;100.00
78590;BME280;67888;50.228;7.828;2023-11-21T02:44:49;98565.13;;;7.81;100.00
78590;BME280;67888;50.228;7.828;2023-11-21T02:49:50;98569.31;;;7.97;100.00
78590;BME280;67888;50.228;7.828;2023-11-21T02:54:52;98583.19;;;7.93;100.00
78590;BME280;67888;50.228;7.828;2023-11-21T02:59:53;98577.94;;;7.87;100.00
78590;BME280;67888;50.228;7.828;2023-11-21T03:04:53;98568.25;;;7.73;100.00
78590;BME280;67888;50.228;7.828;2023-11-21T03:09:54;98568.00;;;7.79;100.00
78590;BME280;67888;50.228;7.828;2023-11-21T03:14:54;98568.53;;;7.81;100.00
78590;BME280;67888;50.228;7.828;2023-11-21T03:19:55;98582.16;;;7.78;100.00
78590;BME280;67888;50.228;7.828;2023-11-21T03:24:55;98589.22;;;7.68;100.00
78590;BME280;67888;50.228;7.828;2023-11-21T03:29:56;98602.03;;;7.74;100.00
78590;BME280;67888;50.228;7.828;2023-11-21T03:34:57;98603.09;;;7.73;100.00
78590;BME280;67888;50.228;7.828;2023-11-21T03:39:58;98603.91;;;7.69;100.00
78590;BME280;67888;50.228;7.828;2023-11-21T03:44:59;98609.13;;;7.64;100.00
78590;BME280;67888;50.228;7.828;2023-11-21T03:49:59;98608.09;;;7.80;100.00
78590;BME280;67888;50.228;7.828;2023-11-21T03:55:00;98612.81;;;7.83;100.00
78590;BME280;67888;50.228;7.828;2023-11-21T04:00:01;98617.00;;;7.84;100.00
78590;BME280;67888;50.228;7.828;2023-11-21T04:05:01;98613.59;;;7.68;100.00
78590;BME280;67888;50.228;7.828;2023-11-21T04:10:02;98635.31;;;7.69;100.00
78590;BME280;67888;50.228;7.828;2023-11-21T04:15:03;98638.72;;;7.74;100.00
78590;BME280;67888;50.228;7.828;2023-11-21T04:20:06;98640.56;;;7.69;100.00
78590;BME280;67888;50.228;7.828;2023-11-21T04:25:11;98649.19;;;7.64;100.00
78590;BME280;67888;50.228;7.828;2023-11-21T04:30:12;98654.41;;;7.74;100.00
78590;BME280;67888;50.228;7.828;2023-11-21T04:35:13;98658.88;;;7.79;100.00
78590;BME280;67888;50.228;7.828;2023-11-21T04:40:14;98668.31;;;7.70;100.00
78590;BME280;67888;50.228;7.828;2023-11-21T04:45:14;98677.72;;;7.76;100.00
78590;BME280;67888;50.228;7.828;2023-11-21T04:50:19;98682.19;;;7.80;100.00
78590;BME280;67888;50.228;7.828;2023-11-21T04:55:20;98688.19;;;7.66;100.00
78590;BME280;67888;50.228;7.828;2023-11-21T05:00:21;98685.59;;;7.66;100.00
78590;BME280;67888;50.228;7.828;2023-11-21T05:05:21;98691.34;;;7.58;100.00
78590;BME280;67888;50.228;7.828;2023-11-21T05:10:22;98712.78;;;7.54;100.00
78590;BME280;67888;50.228;7.828;2023-11-21T05:15:23;98715.94;;;7.57;100.00
78590;BME280;67888;50.228;7.828;2023-11-21T05:20:23;98719.09;;;7.59;100.00
78590;BME280;67888;50.228;7.828;2023-11-21T05:25:25;98727.19;;;7.62;100.00
78590;BME280;67888;50.228;7.828;2023-11-21T05:30:40;98732.13;;;7.48;100.00
78590;BME280;67888;50.228;7.828;2023-11-21T05:35:41;98739.44;;;7.41;100.00
78590;BME280;67888;50.228;7.828;2023-11-21T05:40:41;98746.78;;;7.49;100.00
78590;BME280;67888;50.228;7.828;2023-11-21T05:45:41;98746.25;;;7.47;100.00
78590;BME280;67888;50.228;7.828;2023-11-21T05:50:42;98743.66;;;7.47;100.00
78590;BME280;67888;50.228;7.828;2023-11-21T05:55:43;98736.56;;;7.48;100.00
78590;BME280;67888;50.228;7.828;2023-11-21T06:00:43;98738.41;;;7.47;100.00
78590;BME280;67888;50.228;7.828;2023-11-21T06:05:44;98749.94;;;7.51;100.00
78590;BME280;67888;50.228;7.828;2023-11-21T06:10:44;98754.41;;;7.51;100.00
78590;BME280;67888;50.228;7.828;2023-11-21T06:15:45;98768.28;;;7.46;100.00
78590;BME280;67888;50.228;7.828;2023-11-21T06:20:46;98775.59;;;7.44;100.00
78590;BME280;67888;50.228;7.828;2023-11-21T06:25:46;98777.63;;;7.32;100.00
78590;BME280;67888;50.228;7.828;2023-11-21T06:30:47;98783.66;;;7.33;100.00
78590;BME280;67888;50.228;7.828;2023-11-21T06:35:49;98795.38;;;7.20;100.00
78590;BME280;67888;50.228;7.828;2023-11-21T06:40:50;98810.34;;;7.35;100.00
78590;BME280;67888;50.228;7.828;2023-11-21T06:45:50;98812.06;;;7.14;100.00
78590;BME280;67888;50.228;7.828;2023-11-21T06:50:51;98816.25;;;7.15;100.00
78590;BME280;67888;50.228;7.828;2023-11-21T06:55:52;98832.94;;;7.46;100.00
78590;BME280;67888;50.228;7.828;2023-11-21T07:00:53;98838.94;;;7.46;100.00
78590;BME280;67888;50.228;7.828;2023-11-21T07:05:53;98856.75;;;7.49;100.00
78590;BME280;67888;50.228;7.828;2023-11-21T07:10:53;98857.47;;;7.40;100.00
78590;BME280;67888;50.228;7.828;2023-11-21T07:15:54;98862.72;;;7.40;100.00
78590;BME280;67888;50.228;7.828;2023-11-21T07:20:54;98865.09;;;7.41;100.00
78590;BME280;67888;50.228;7.828;2023-11-21T07:25:55;98871.06;;;7.32;100.00
78590;BME280;67888;50.228;7.828;2023-11-21T07:30:55;98890.69;;;7.34;100.00
78590;BME280;67888;50.228;7.828;2023-11-21T07:35:56;98897.66;;;7.18;100.00
78590;BME280;67888;50.228;7.828;2023-11-21T07:40:56;98909.28;;;7.33;100.00
78590;BME280;67888;50.228;7.828;2023-11-21T07:45:57;98915.78;;;7.30;100.00
78590;BME280;67888;50.228;7.828;2023-11-21T07:50:58;98918.66;;;7.29;100.00
78590;BME280;67888;50.228;7.828;2023-11-21T07:56:03;98922.31;;;7.28;100.00
78590;BME280;67888;50.228;7.828;2023-11-21T08:01:04;98925.53;;;7.40;100.00
78590;BME280;67888;50.228;7.828;2023-11-21T08:06:05;98938.19;;;7.53;100.00
78590;BME280;67888;50.228;7.828;2023-11-21T08:11:06;98942.16;;;7.61;100.00
78590;BME280;67888;50.228;7.828;2023-11-21T08:16:10;98947.06;;;7.52;100.00
78590;BME280;67888;50.228;7.828;2023-11-21T08:21:12;98951.38;;;7.73;100.00
78590;BME280;67888;50.228;7.828;2023-11-21T08:26:16;98960.63;;;7.86;100.00
78590;BME280;67888;50.228;7.828;2023-11-21T08:31:16;98972.19;;;7.90;100.00
78590;BME280;67888;50.228;7.828;2023-11-21T08:36:17;98969.63;;;8.05;100.00
78590;BME280;67888;50.228;7.828;2023-11-21T08:41:18;98964.84;;;7.92;100.00
78590;BME280;67888;50.228;7.828;2023-11-21T08:46:21;98972.53;;;8.09;100.00
78590;BME280;67888;50.228;7.828;2023-11-21T08:51:21;98969.44;;;8.17;100.00
78590;BME280;67888;50.228;7.828;2023-11-21T08:56:26;98974.16;;;8.25;100.00
78590;BME280;67888;50.228;7.828;2023-11-21T09:01:28;98975.56;;;8.38;100.00
78590;BME280;67888;50.228;7.828;2023-11-21T09:06:29;98979.28;;;8.52;100.00
78590;BME280;67888;50.228;7.828;2023-11-21T09:11:29;98979.81;;;8.64;100.00
78590;BME280;67888;50.228;7.828;2023-11-21T09:16:33;98985.63;;;8.76;100.00
78590;BME280;67888;50.228;7.828;2023-11-21T09:21:34;98994.00;;;8.68;100.00
78590;BME280;67888;50.228;7.828;2023-11-21T09:26:35;98995.38;;;8.86;100.00
78590;BME280;67888;50.228;7.828;2023-11-21T09:31:35;99004.56;;;8.93;100.00
78590;BME280;67888;50.228;7.828;2023-11-21T09:36:36;99008.25;;;9.08;100.00
78590;BME280;67888;50.228;7.828;2023-11-21T09:41:43;99015.59;;;9.06;100.00
78590;BME280;67888;50.228;7.828;2023-11-21T09:46:48;99028.97;;;8.94;100.00
78590;BME280;67888;50.228;7.828;2023-11-21T09:51:51;99037.34;;;8.91;100.00
78590;BME280;67888;50.228;7.828;2023-11-21T09:56:55;99035.28;;;8.98;100.00
78590;BME280;67888;50.228;7.828;2023-11-21T10:01:56;99052.84;;;9.03;100.00
78590;BME280;67888;50.228;7.828;2023-11-21T10:06:59;99060.69;;;8.87;100.00
78590;BME280;67888;50.228;7.828;2023-11-21T10:11:59;99059.19;;;9.12;100.00
78590;BME280;67888;50.228;7.828;2023-11-21T10:17:01;99061.78;;;9.07;100.00
78590;BME280;67888;50.228;7.828;2023-11-21T10:22:02;99061.81;;;9.12;100.00
78590;BME280;67888;50.228;7.828;2023-11-21T10:27:04;99066.00;;;9.18;100.00
78590;BME280;67888;50.228;7.828;2023-11-21T10:32:04;99072.31;;;9.12;100.00
78590;BME280;67888;50.228;7.828;2023-11-21T10:37:12;99077.00;;;9.05;100.00
78590;BME280;67888;50.228;7.828;2023-11-21T10:42:12;99066.78;;;9.08;100.00
78590;BME280;67888;50.228;7.828;2023-11-21T10:47:14;99069.66;;;9.07;100.00
78590;BME280;67888;50.228;7.828;2023-11-21T10:52:16;99073.34;;;9.06;100.00
78590;BME280;67888;50.228;7.828;2023-11-21T10:57:20;99067.56;;;8.98;100.00
78590;BME280;67888;50.228;7.828;2023-11-21T11:02:25;99077.78;;;8.95;100.00
78590;BME280;67888;50.228;7.828;2023-11-21T11:07:34;99079.59;;;8.99;100.00
78590;BME280;67888;50.228;7.828;2023-11-21T11:12:36;99076.97;;;8.94;100.00
78590;BME280;67888;50.228;7.828;2023-11-21T11:17:37;99071.81;;;9.40;100.00
78590;BME280;67888;50.228;7.828;2023-11-21T11:22:50;99077.06;;;9.50;100.00
78590;BME280;67888;50.228;7.828;2023-11-21T11:38:01;99068.94;;;9.72;100.00
78590;BME280;67888;50.228;7.828;2023-11-21T11:43:01;99066.56;;;9.86;100.00
78590;BME280;67888;50.228;7.828;2023-11-21T11:48:05;99071.03;;;9.80;100.00
78590;BME280;67888;50.228;7.828;2023-11-21T11:53:13;99074.69;;;9.79;100.00
78590;BME280;67888;50.228;7.828;2023-11-21T11:58:14;99077.63;;;9.62;100.00
78590;BME280;67888;50.228;7.828;2023-11-21T12:03:15;99084.69;;;9.47;100.00
78590;BME280;67888;50.228;7.828;2023-11-21T12:08:20;99090.47;;;9.44;100.00
78590;BME280;67888;50.228;7.828;2023-11-21T12:13:21;99094.41;;;9.36;100.00
78590;BME280;67888;50.228;7.828;2023-11-21T12:18:23;99098.88;;;9.46;100.00
78590;BME280;67888;50.228;7.828;2023-11-21T12:23:26;99102.28;;;9.51;100.00
78590;BME280;67888;50.228;7.828;2023-11-21T12:28:27;99094.94;;;9.63;100.00
78590;BME280;67888;50.228;7.828;2023-11-21T12:33:28;99100.19;;;9.89;100.00
78590;BME280;67888;50.228;7.828;2023-11-21T12:38:35;99102.81;;;10.19;100.00
78590;BME280;67888;50.228;7.828;2023-11-21T12:43:36;99100.66;;;10.41;100.00
78590;BME280;67888;50.228;7.828;2023-11-21T12:48:41;99109.13;;;9.98;100.00
78590;BME280;67888;50.228;7.828;2023-11-21T12:53:45;99118.56;;;9.89;100.00
78590;BME280;67888;50.228;7.828;2023-11-21T12:58:48;99120.69;;;9.72;100.00
78590;BME280;67888;50.228;7.828;2023-11-21T13:03:52;99123.31;;;9.72;100.00
78590;BME280;67888;50.228;7.828;2023-11-21T13:08:54;99124.84;;;9.42;100.00
78590;BME280;67888;50.228;7.828;2023-11-21T13:13:57;99133.25;;;9.39;100.00
78590;BME280;67888;50.228;7.828;2023-11-21T13:18:58;99142.16;;;9.23;100.00
78590;BME280;67888;50.228;7.828;2023-11-21T13:23:58;99149.00;;;9.24;100.00
78590;BME280;67888;50.228;7.828;2023-11-21T13:28:58;99155.78;;;9.20;100.00
78590;BME280;67888;50.228;7.828;2023-11-21T13:33:59;99165.50;;;9.19;100.00
78590;BME280;67888;50.228;7.828;2023-11-21T13:39:05;99168.81;;;8.99;100.00
78590;BME280;67888;50.228;7.828;2023-11-21T13:44:07;99156.78;;;9.04;100.00
78590;BME280;67888;50.228;7.828;2023-11-21T13:49:37;99156.25;;;8.96;100.00
78590;BME280;67888;50.228;7.828;2023-11-21T13:54:41;99153.13;;;9.05;100.00
78590;BME280;67888;50.228;7.828;2023-11-21T13:59:41;99156.28;;;9.07;100.00
78590;BME280;67888;50.228;7.828;2023-11-21T14:04:44;99170.97;;;9.08;100.00
78590;BME280;67888;50.228;7.828;2023-11-21T14:10:07;99164.66;;;9.04;100.00
78590;BME280;67888;50.228;7.828;2023-11-21T14:15:13;99177.25;;;8.96;100.00
78590;BME280;67888;50.228;7.828;2023-11-21T14:20:19;99179.09;;;9.06;100.00
78590;BME280;67888;50.228;7.828;2023-11-21T14:25:21;99171.94;;;8.86;100.00
78590;BME280;67888;50.228;7.828;2023-11-21T14:30:23;99185.81;;;8.87;100.00
78590;BME280;67888;50.228;7.828;2023-11-21T14:35:23;99189.19;;;8.77;100.00
78590;BME280;67888;50.228;7.828;2023-11-21T14:40:24;99193.34;;;8.68;100.00
78590;BME280;67888;50.228;7.828;2023-11-21T14:45:24;99199.16;;;8.75;100.00
78590;BME280;67888;50.228;7.828;2023-11-21T14:50:26;99212.94;;;8.55;100.00
78590;BME280;67888;50.228;7.828;2023-11-21T14:55:42;99215.63;;;8.60;100.00
78590;BME280;67888;50.228;7.828;2023-11-21T15:00:57;99209.88;;;8.69;100.00
78590;BME280;67888;50.228;7.828;2023-11-21T15:05:58;99224.78;;;8.58;100.00
78590;BME280;67888;50.228;7.828;2023-11-21T15:11:00;99226.53;;;8.47;100.00
78590;BME280;67888;50.228;7.828;2023-11-21T15:16:02;99232.53;;;8.43;100.00
78590;BME280;67888;50.228;7.828;2023-11-21T15:21:16;99243.31;;;8.46;100.00
78590;BME280;67888;50.228;7.828;2023-11-21T15:26:16;99243.06;;;8.48;100.00
78590;BME280;67888;50.228;7.828;2023-11-21T15:31:17;99252.78;;;8.52;100.00
78590;BME280;67888;50.228;7.828;2023-11-21T15:36:22;99242.00;;;8.49;100.00
78590;BME280;67888;50.228;7.828;2023-11-21T15:41:23;99253.03;;;8.51;100.00
78590;BME280;67888;50.228;7.828;2023-11-21T15:46:24;99260.91;;;8.51;100.00
78590;BME280;67888;50.228;7.828;2023-11-21T15:51:25;99264.31;;;8.51;100.00
78590;BME280;67888;50.228;7.828;2023-11-21T15:56:26;99258.81;;;8.53;100.00
78590;BME280;67888;50.228;7.828;2023-11-21T16:01:26;99260.41;;;8.54;100.00
78590;BME280;67888;50.228;7.828;2023-11-21T16:06:27;99266.69;;;8.53;100.00
78590;BME280;67888;50.228;7.828;2023-11-21T16:11:30;99271.19;;;8.57;100.00
78590;BME280;67888;50.228;7.828;2023-11-21T16:16:30;99283.44;;;8.52;100.00
78590;BME280;67888;50.228;7.828;2023-11-21T16:21:31;99291.53;;;8.45;100.00
78590;BME280;67888;50.228;7.828;2023-11-21T16:26:31;99298.13;;;8.48;100.00
78590;BME280;67888;50.228;7.828;2023-11-21T16:31:32;99296.56;;;8.52;100.00
78590;BME280;67888;50.228;7.828;2023-11-21T16:36:34;99301.53;;;8.48;100.00
78590;BME280;67888;50.228;7.828;2023-11-21T16:41:35;99311.44;;;8.41;100.00
78590;BME280;67888;50.228;7.828;2023-11-21T16:46:35;99321.81;;;8.31;100.00
78590;BME280;67888;50.228;7.828;2023-11-21T16:51:36;99332.75;;;8.23;100.00
78590;BME280;67888;50.228;7.828;2023-11-21T16:56:37;99336.59;;;8.15;100.00
78590;BME280;67888;50.228;7.828;2023-11-21T17:01:38;99333.41;;;8.13;100.00
78590;BME280;67888;50.228;7.828;2023-11-21T17:06:42;99344.50;;;8.20;100.00
78590;BME280;67888;50.228;7.828;2023-11-21T17:11:45;99349.59;;;8.05;100.00
78590;BME280;67888;50.228;7.828;2023-11-21T17:16:46;99350.06;;;8.02;100.00
78590;BME280;67888;50.228;7.828;2023-11-21T17:21:49;99354.47;;;8.23;100.00
78590;BME280;67888;50.228;7.828;2023-11-21T17:26:49;99365.09;;;8.12;100.00
78590;BME280;67888;50.228;7.828;2023-11-21T17:31:50;99370.72;;;8.20;100.00
78590;BME280;67888;50.228;7.828;2023-11-21T17:36:50;99377.25;;;8.18;100.00
78590;BME280;67888;50.228;7.828;2023-11-21T17:41:51;99385.03;;;8.13;100.00
78590;BME280;67888;50.228;7.828;2023-11-21T17:46:51;99389.47;;;8.12;100.00
78590;BME280;67888;50.228;7.828;2023-11-21T17:51:52;99395.75;;;8.11;100.00
78590;BME280;67888;50.228;7.828;2023-11-21T17:56:53;99389.38;;;8.02;100.00
78590;BME280;67888;50.228;7.828;2023-11-21T18:01:54;99404.53;;;8.00;100.00
78590;BME280;67888;50.228;7.828;2023-11-21T18:06:55;99407.16;;;8.00;100.00
78590;BME280;67888;50.228;7.828;2023-11-21T18:11:58;99408.31;;;7.87;100.00
78590;BME280;67888;50.228;7.828;2023-11-21T18:16:59;99414.06;;;7.84;100.00
78590;BME280;67888;50.228;7.828;2023-11-21T18:21:59;99413.19;;;7.79;100.00
78590;BME280;67888;50.228;7.828;2023-11-21T18:27:00;99437.09;;;7.82;100.00
78590;BME280;67888;50.228;7.828;2023-11-21T18:32:00;99459.56;;;7.78;100.00
78590;BME280;67888;50.228;7.828;2023-11-21T18:37:01;99466.13;;;7.81;100.00
78590;BME280;67888;50.228;7.828;2023-11-21T18:42:02;99478.25;;;7.87;100.00
78590;BME280;67888;50.228;7.828;2023-11-21T18:47:02;99484.19;;;7.99;100.00
78590;BME280;67888;50.228;7.828;2023-11-21T18:52:03;99497.16;;;7.89;100.00
78590;BME280;67888;50.228;7.828;2023-11-21T18:57:04;99494.66;;;7.99;100.00
78590;BME280;67888;50.228;7.828;2023-11-21T19:02:05;99501.44;;;7.95;100.00
78590;BME280;67888;50.228;7.828;2023-11-21T19:07:08;99507.75;;;7.99;100.00
78590;BME280;67888;50.228;7.828;2023-11-21T19:12:09;99514.19;;;8.08;100.00
78590;BME280;67888;50.228;7.828;2023-11-21T19:17:13;99524.69;;;8.08;100.00
78590;BME280;67888;50.228;7.828;2023-11-21T19:22:13;99531.25;;;8.11;100.00
78590;BME280;67888;50.228;7.828;2023-11-21T19:27:14;99528.09;;;8.09;100.00
78590;BME280;67888;50.228;7.828;2023-11-21T19:32:14;99535.97;;;8.09;100.00
78590;BME280;67888;50.228;7.828;2023-11-21T19:37:15;99568.53;;;7.63;100.00
78590;BME280;67888;50.228;7.828;2023-11-21T19:42:15;99575.75;;;7.10;100.00
78590;BME280;67888;50.228;7.828;2023-11-21T19:47:17;99595.19;;;6.74;100.00
78590;BME280;67888;50.228;7.828;2023-11-21T19:52:18;99603.91;;;6.52;100.00
78590;BME280;67888;50.228;7.828;2023-11-21T19:57:18;99603.56;;;6.01;100.00
78590;BME280;67888;50.228;7.828;2023-11-21T20:02:19;99620.13;;;5.95;100.00
78590;BME280;67888;50.228;7.828;2023-11-21T20:07:19;99623.63;;;5.78;100.00
78590;BME280;67888;50.228;7.828;2023-11-21T20:12:22;99631.22;;;5.79;100.00
78590;BME280;67888;50.228;7.828;2023-11-21T20:17:22;99631.53;;;5.71;100.00
78590;BME280;67888;50.228;7.828;2023-11-21T20:22:24;99646.41;;;5.70;100.00
78590;BME280;67888;50.228;7.828;2023-11-21T20:27:25;99653.91;;;5.67;100.00
78590;BME280;67888;50.228;7.828;2023-11-21T20:32:26;99665.22;;;5.61;100.00
78590;BME280;67888;50.228;7.828;2023-11-21T20:37:27;99667.63;;;5.62;100.00
78590;BME280;67888;50.228;7.828;2023-11-21T20:42:27;99668.59;;;5.50;100.00
78590;BME280;67888;50.228;7.828;2023-11-21T20:47:31;99679.13;;;5.43;100.00
78590;BME280;67888;50.228;7.828;2023-11-21T20:52:33;99680.00;;;5.37;100.00
78590;BME280;67888;50.228;7.828;2023-11-21T20:57:34;99697.47;;;5.36;100.00
78590;BME280;67888;50.228;7.828;2023-11-21T21:02:35;99700.56;;;5.45;100.00
78590;BME280;67888;50.228;7.828;2023-11-21T21:07:36;99706.03;;;5.44;100.00
78590;BME280;67888;50.228;7.828;2023-11-21T21:12:36;99717.91;;;5.39;100.00
78590;BME280;67888;50.228;7.828;2023-11-21T21:17:38;99720.59;;;5.33;100.00
78590;BME280;67888;50.228;7.828;2023-11-21T21:22:42;99727.06;;;5.30;100.00
78590;BME280;67888;50.228;7.828;2023-11-21T21:27:42;99733.00;;;5.19;100.00
78590;BME280;67888;50.228;7.828;2023-11-21T21:32:43;99735.88;;;5.11;100.00
78590;BME280;67888;50.228;7.828;2023-11-21T21:37:46;99735.88;;;5.11;100.00
78590;BME280;67888;50.228;7.828;2023-11-21T21:42:47;99738.44;;;5.18;100.00
78590;BME280;67888;50.228;7.828;2023-11-21T21:47:48;99749.09;;;5.16;100.00
78590;BME280;67888;50.228;7.828;2023-11-21T21:52:49;99761.13;;;5.17;100.00
78590;BME280;67888;50.228;7.828;2023-11-21T21:57:49;99763.56;;;5.12;100.00
78590;BME280;67888;50.228;7.828;2023-11-21T22:02:50;99762.56;;;5.13;100.00
78590;BME280;67888;50.228;7.828;2023-11-21T22:07:51;99770.38;;;5.13;100.00
78590;BME280;67888;50.228;7.828;2023-11-21T22:12:52;99769.50;;;5.01;100.00
78590;BME280;67888;50.228;7.828;2023-11-21T22:17:54;99784.56;;;4.99;100.00
78590;BME280;67888;50.228;7.828;2023-11-21T22:22:55;99792.56;;;5.04;100.00
78590;BME280;67888;50.228;7.828;2023-11-21T22:27:55;99806.06;;;4.94;100.00
78590;BME280;67888;50.228;7.828;2023-11-21T22:32:56;99806.22;;;4.99;100.00
78590;BME280;67888;50.228;7.828;2023-11-21T22:38:00;99807.22;;;4.98;100.00
78590;BME280;67888;50.228;7.828;2023-11-21T22:43:01;99813.22;;;4.81;100.00
78590;BME280;67888;50.228;7.828;2023-11-21T22:48:02;99825.22;;;4.82;100.00
78590;BME280;67888;50.228;7.828;2023-11-21T22:53:03;99841.09;;;4.80;100.00
78590;BME280;67888;50.228;7.828;2023-11-21T22:58:04;99846.88;;;4.82;100.00
78590;BME280;67888;50.228;7.828;2023-11-21T23:03:04;99859.97;;;4.76;100.00
78590;BME280;67888;50.228;7.828;2023-11-21T23:08:06;99870.41;;;4.76;100.00
78590;BME280;67888;50.228;7.828;2023-11-21T23:13:09;99870.78;;;4.79;100.00
78590;BME280;67888;50.228;7.828;2023-11-21T23:18:10;99871.59;;;4.80;100.00
78590;BME280;67888;50.228;7.828;2023-11-21T23:23:11;99867.63;;;4.71;100.00
78590;BME280;67888;50.228;7.828;2023-11-21T23:28:12;99878.22;;;4.76;100.00
78590;BME280;67888;50.228;7.828;2023-11-21T23:33:14;99884.88;;;4.72;100.00
78590;BME280;67888;50.228;7.828;2023-11-21T23:38:15;99891.53;;;4.67;100.00
78590;BME280;67888;50.228;7.828;2023-11-21T23:43:16;99898.81;;;4.84;100.00
78590;BME280;67888;50.228;7.828;2023-11-21T23:48:20;99892.94;;;4.63;100.00
78590;BME280;67888;50.228;7.828;2023-11-21T23:53:21;99902.84;;;4.48;100.00
78590;BME280;67888;50.228;7.828;2023-11-21T23:58:22;99897.31;;;4.38;100.00
